Time;durP1;ratioP1;P1;durP2;ratioP2;P2;SDS_P1;SDS_P2;PMS_P1;PMS_P2;Temp;Humidity;BMP_temperature;BMP_pressure;BME280_temperature;BME280_humidity;BME280_pressure;Samples;Min_cycle;Max_cycle;Signal;HPM_P1;HPM_P2
2023/06/13 00:00:01;;;;;;;;;22.25;19.25;;;;;24.03;61.06;100356.47;4974665;28;45692;-76
2023/06/13 00:02:28;;;;;;;;;24.25;22.25;;;;;23.97;61.05;100352.75;4957707;28;45667;-75
2023/06/13 00:04:55;;;;;;;;;26.00;24.00;;;;;23.91;60.62;100344.72;4957470;28;46064;-77
2023/06/13 00:07:22;;;;;;;;;24.50;20.50;;;;;23.91;60.67;100352.75;4973599;28;48318;-77
2023/06/13 00:09:47;;;;;;;;;23.75;23.00;;;;;23.95;60.53;100364.69;4957594;28;46645;-76
2023/06/13 00:15:35;;;;;;;;;23.50;21.75;;;;;23.90;60.21;100353.78;4974901;28;45707;-76
2023/06/13 00:18:01;;;;;;;;;23.25;21.00;;;;;23.88;60.58;100355.81;4974587;28;46582;-77
2023/06/13 00:20:26;;;;;;;;;25.00;22.75;;;;;23.85;60.35;100349.03;4974396;28;47295;-76
2023/06/13 00:22:52;;;;;;;;;22.75;20.75;;;;;23.76;60.43;100339.50;4974814;28;45678;-74
2023/06/13 00:25:17;;;;;;;;;22.50;21.25;;;;;23.81;59.90;100353.09;4974871;28;45682;-74
2023/06/13 00:31:04;;;;;;;;;25.50;23.25;;;;;23.73;60.44;100350.63;4973560;28;45772;-74
2023/06/13 00:33:31;;;;;;;;;22.00;20.75;;;;;23.71;60.11;100350.00;4974715;28;45636;-76
2023/06/13 00:35:57;;;;;;;;;22.50;20.25;;;;;23.67;60.26;100346.06;4974978;28;45577;-76
2023/06/13 00:38:23;;;;;;;;;23.50;23.25;;;;;23.62;60.57;100344.00;4974393;28;45680;-75
2023/06/13 00:40:50;;;;;;;;;23.00;21.50;;;;;23.58;60.14;100336.59;4974648;28;45883;-75
2023/06/13 00:43:17;;;;;;;;;21.50;20.75;;;;;23.54;60.39;100336.13;4974293;28;45650;-75
2023/06/13 00:45:42;;;;;;;;;23.75;22.00;;;;;23.49;60.58;100329.75;4974611;28;45825;-76
2023/06/13 00:48:09;;;;;;;;;22.25;22.00;;;;;23.53;60.44;100339.03;4974052;28;46487;-75
2023/06/13 00:50:43;;;;;;;;;25.75;23.75;;;;;23.50;60.87;100337.56;4974302;28;46407;-75
2023/06/13 00:53:11;;;;;;;;;24.25;22.50;;;;;23.42;60.31;100321.69;4974578;28;45868;-76
2023/06/13 00:55:37;;;;;;;;;24.25;22.50;;;;;23.41;60.34;100328.88;4973948;28;45676;-76
2023/06/13 01:01:25;;;;;;;;;25.25;24.25;;;;;23.42;60.63;100325.19;4963287;28;46135;-77
2023/06/13 01:03:50;;;;;;;;;23.50;21.50;;;;;23.38;60.52;100313.22;4974361;28;45760;-75
2023/06/13 01:06:16;;;;;;;;;26.25;25.00;;;;;23.40;60.68;100326.41;4974038;28;45766;-76
2023/06/13 01:08:44;;;;;;;;;22.50;22.25;;;;;23.38;60.84;100333.78;4973705;28;46338;-75
2023/06/13 01:11:25;;;;;;;;;27.25;26.50;;;;;23.37;60.26;100322.25;4974141;28;46477;-75
2023/06/13 01:14:02;;;;;;;;;25.50;24.25;;;;;23.35;60.43;100323.50;4973997;28;45552;-75
2023/06/13 01:16:45;;;;;;;;;24.75;22.25;;;;;23.35;60.38;100324.31;4974287;28;45544;-74
2023/06/13 01:19:40;;;;;;;;;29.00;26.25;;;;;23.34;60.78;100324.50;4973924;28;47045;-74
2023/06/13 01:22:12;;;;;;;;;23.25;23.00;;;;;23.26;60.67;100314.81;4973981;28;45797;-75
2023/06/13 01:24:48;;;;;;;;;24.25;22.25;;;;;23.27;60.62;100319.13;4972223;28;45969;-74
2023/06/13 01:27:16;;;;;;;;;24.25;24.00;;;;;23.21;60.52;100317.25;4973963;28;45771;-74
2023/06/13 01:29:43;;;;;;;;;25.25;23.25;;;;;23.17;60.67;100313.31;4973465;28;46459;-74
2023/06/13 01:32:10;;;;;;;;;26.00;22.50;;;;;23.20;60.26;100320.97;4973561;28;46226;-74
2023/06/13 01:34:36;;;;;;;;;23.50;22.50;;;;;23.17;60.99;100318.66;4973772;28;45744;-74
2023/06/13 01:37:02;;;;;;;;;24.75;23.50;;;;;23.12;60.25;100317.59;4973621;28;45520;-72
2023/06/13 01:39:28;;;;;;;;;24.00;21.75;;;;;23.12;61.08;100317.59;4973273;28;45641;-75
2023/06/13 01:41:53;;;;;;;;;27.75;25.25;;;;;23.06;61.26;100319.22;4973574;28;45766;-73
2023/06/13 01:44:20;;;;;;;;;28.25;27.25;;;;;23.07;60.73;100318.19;4973774;28;45919;-74
2023/06/13 01:47:20;;;;;;;;;27.75;26.75;;;;;23.07;60.56;100326.22;4973903;28;45673;-74
2023/06/13 01:49:55;;;;;;;;;31.75;24.75;;;;;23.04;61.00;100321.28;4973161;28;46428;-74
2023/06/13 01:52:39;;;;;;;;;27.75;26.75;;;;;23.00;60.58;100317.31;4973392;28;46423;-74
2023/06/13 01:55:14;;;;;;;;;24.75;24.25;;;;;22.87;60.62;100310.06;4973124;28;45844;-75
2023/06/13 01:57:43;;;;;;;;;24.00;23.00;;;;;22.82;61.31;100303.66;4973598;28;45850;-74
2023/06/13 02:00:13;;;;;;;;;25.50;24.75;;;;;22.90;60.84;100324.88;4972929;28;45740;-76
2023/06/13 02:02:40;;;;;;;;;26.75;24.50;;;;;22.88;60.85;100318.91;4972996;28;47147;-75
2023/06/13 02:05:08;;;;;;;;;30.00;28.00;;;;;22.86;61.21;100313.75;4972893;28;45737;-75
2023/06/13 02:07:36;;;;;;;;;23.75;21.25;;;;;22.83;60.67;100310.66;4973508;28;45672;-75
2023/06/13 02:10:05;;;;;;;;;27.50;25.75;;;;;22.82;61.24;100304.50;4973047;28;46333;-76
2023/06/13 02:12:31;;;;;;;;;26.25;23.50;;;;;22.82;61.12;100298.31;4955299;28;46598;-74
2023/06/13 02:14:57;;;;;;;;;26.50;23.50;;;;;22.81;61.16;100296.66;4972736;28;45477;-76
2023/06/13 02:17:23;;;;;;;;;30.00;25.00;;;;;22.78;60.56;100295.19;4973137;28;45963;-76
2023/06/13 02:19:49;;;;;;;;;24.00;22.25;;;;;22.75;60.65;100281.41;4955804;28;46347;-75
2023/06/13 02:22:14;;;;;;;;;31.00;24.50;;;;;22.76;60.52;100293.75;4972822;28;47045;-73
2023/06/13 02:24:40;;;;;;;;;32.75;30.25;;;;;22.79;61.03;100307.53;4972709;28;45758;-75
2023/06/13 02:27:06;;;;;;;;;26.75;24.25;;;;;22.68;60.60;100289.34;4973212;28;45695;-75
2023/06/13 02:29:33;;;;;;;;;25.25;22.75;;;;;22.74;60.81;100304.63;4972773;28;46267;-76
2023/06/13 02:31:59;;;;;;;;;28.75;28.00;;;;;22.69;60.88;100298.19;4973096;28;47184;-76
2023/06/13 02:34:24;;;;;;;;;25.50;23.25;;;;;22.69;60.80;100293.69;4973256;28;45781;-73
2023/06/13 02:36:50;;;;;;;;;27.00;23.25;;;;;22.67;60.88;100292.25;4973379;28;45545;-77
2023/06/13 02:39:15;;;;;;;;;25.50;24.25;;;;;22.65;61.23;100295.09;4972650;28;46585;-75
2023/06/13 02:41:40;;;;;;;;;32.00;29.25;;;;;22.59;60.64;100286.03;4972978;28;45952;-75
2023/06/13 02:47:27;;;;;;;;;24.75;24.75;;;;;22.55;60.10;100292.78;4972776;28;45635;-74
2023/06/13 02:49:53;;;;;;;;;25.00;23.75;;;;;22.53;60.37;100296.66;4972666;28;45630;-75
2023/06/13 02:52:21;;;;;;;;;23.75;23.00;;;;;22.49;60.40;100290.03;4971438;28;48356;-74
2023/06/13 02:54:47;;;;;;;;;25.50;23.00;;;;;22.44;60.34;100279.13;4975336;28;45840;-74
2023/06/13 02:57:13;;;;;;;;;24.50;22.75;;;;;22.42;60.80;100287.31;4976255;28;45650;-74
2023/06/13 03:03:03;;;;;;;;;27.50;25.50;;;;;22.35;60.50;100280.28;4964705;28;45856;-74
2023/06/13 03:05:30;;;;;;;;;24.50;23.50;;;;;22.38;60.44;100286.06;4975900;28;45579;-76
2023/06/13 03:07:59;;;;;;;;;31.25;28.50;;;;;22.36;60.70;100296.09;4976346;28;45589;-76
2023/06/13 03:10:25;;;;;;;;;26.00;24.75;;;;;22.37;60.08;100286.25;4976040;28;46712;-75
2023/06/13 03:12:50;;;;;;;;;25.00;24.00;;;;;22.38;60.69;100286.06;4975786;28;46119;-74
2023/06/13 03:15:16;;;;;;;;;29.00;27.25;;;;;22.38;60.79;100291.41;4975522;28;45613;-74
2023/06/13 03:17:42;;;;;;;;;32.50;28.75;;;;;22.39;60.05;100292.22;4974617;28;45586;-78
2023/06/13 03:20:09;;;;;;;;;29.00;24.25;;;;;22.39;60.69;100290.38;4975666;28;45664;-77
2023/06/13 03:22:34;;;;;;;;;30.00;27.50;;;;;22.38;60.09;100286.06;4975774;28;45994;-76
2023/06/13 03:25:04;;;;;;;;;28.50;27.00;;;;;22.39;60.46;100289.56;4975532;28;45607;-75
2023/06/13 03:27:33;;;;;;;;;32.00;28.75;;;;;22.33;60.03;100283.16;4975495;28;46046;-74
2023/06/13 03:33:22;;;;;;;;;29.75;27.50;;;;;22.32;60.04;100286.00;4975335;28;46209;-77
2023/06/13 03:35:47;;;;;;;;;33.00;27.00;;;;;22.33;60.95;100287.66;4975691;28;45474;-75
2023/06/13 03:38:12;;;;;;;;;26.00;24.75;;;;;22.16;60.14;100263.91;4975728;28;45539;-77
2023/06/13 03:40:38;;;;;;;;;32.75;27.75;;;;;22.27;60.24;100291.94;4975471;28;45631;-76
2023/06/13 03:43:03;;;;;;;;;24.75;24.00;;;;;22.25;60.79;100293.13;4975413;28;45880;-76
2023/06/13 03:45:29;;;;;;;;;27.50;25.50;;;;;22.25;60.81;100291.28;4975365;28;45694;-77
2023/06/13 03:47:54;;;;;;;;;28.00;24.50;;;;;22.22;60.09;100286.34;4975498;28;45740;-76
2023/06/13 03:50:20;;;;;;;;;27.75;26.50;;;;;22.23;60.46;100288.00;4975088;28;47589;-76
2023/06/13 03:52:45;;;;;;;;;23.75;23.25;;;;;22.21;59.91;100292.69;4975334;28;46110;-76
2023/06/13 03:55:11;;;;;;;;;25.75;23.75;;;;;22.17;60.33;100283.41;4975043;28;45789;-77
2023/06/13 03:57:36;;;;;;;;;24.50;21.50;;;;;;;;4975503;28;45842;-76
2023/06/13 04:03:23;;;;;;;;;30.00;26.25;;;;;22.15;60.02;100293.44;4973339;28;46075;-77
2023/06/13 04:05:48;;;;;;;;;26.25;24.50;;;;;22.10;59.90;100286.03;4973992;28;45747;-76
2023/06/13 04:08:13;;;;;;;;;24.50;24.50;;;;;22.13;59.97;100284.84;4974996;28;45544;-77
2023/06/13 04:10:39;;;;;;;;;26.50;25.50;;;;;22.15;59.89;100294.28;4974722;28;46213;-75
2023/06/13 04:13:04;;;;;;;;;27.25;24.50;;;;;22.14;60.53;100291.78;4974763;28;46340;-77
2023/06/13 04:18:54;;;;;;;;;23.75;22.50;;;;;22.13;59.95;100303.50;4974897;28;45502;-75
2023/06/13 04:21:21;;;;;;;;;29.00;26.00;;;;;22.10;60.23;100302.03;4974951;28;45563;-77
2023/06/13 04:23:48;;;;;;;;;26.75;23.25;;;;;22.08;60.53;100298.72;4974489;28;45720;-76
2023/06/13 04:26:17;;;;;;;;;27.00;26.75;;;;;22.05;60.11;100296.44;4974708;28;45646;-76
2023/06/13 04:28:43;;;;;;;;;27.50;26.50;;;;;22.02;60.24;100296.84;4974787;28;45713;-77
2023/06/13 04:31:10;;;;;;;;;26.25;25.00;;;;;22.04;59.98;100310.81;4974824;28;46192;-76
2023/06/13 04:33:39;;;;;;;;;27.00;24.25;;;;;22.05;60.02;100307.13;4974318;28;46248;-76
2023/06/13 04:36:08;;;;;;;;;25.25;22.50;;;;;22.03;60.35;100306.47;4975179;28;45836;-75
2023/06/13 04:38:35;;;;;;;;;32.00;27.00;;;;;22.04;59.83;100316.13;4956923;28;45684;-76
2023/06/13 04:41:02;;;;;;;;;27.00;23.75;;;;;21.97;59.92;100307.22;4974485;28;45709;-75
2023/06/13 04:43:28;;;;;;;;;24.00;23.50;;;;;22.03;60.18;100311.81;4974479;28;46415;-74
2023/06/13 04:49:15;;;;;;;;;29.25;27.00;;;;;21.98;60.58;100306.22;4974375;28;45681;-76
2023/06/13 04:51:42;;;;;;;;;36.00;28.00;;;;;22.03;60.90;100314.47;4974342;28;46482;-76
2023/06/13 04:54:09;;;;;;;;;31.50;28.50;;;;;22.00;61.36;100314.03;4974024;28;46565;-76
2023/06/13 04:56:35;;;;;;;;;25.50;24.75;;;;;21.96;61.13;100313.59;4974217;28;45666;-76
2023/06/13 04:59:00;;;;;;;;;27.25;24.25;;;;;21.95;61.35;100311.13;4974034;28;45600;-75
2023/06/13 05:01:26;;;;;;;;;32.25;28.25;;;;;21.93;61.34;100308.59;4974330;28;46413;-75
2023/06/13 05:03:53;;;;;;;;;31.25;28.75;;;;;21.93;60.91;100307.78;4973846;28;45787;-76
2023/06/13 05:06:19;;;;;;;;;27.25;24.50;;;;;21.93;60.90;100313.94;4974074;28;45840;-76
2023/06/13 05:08:44;;;;;;;;;28.50;27.00;;;;;21.90;61.28;100311.66;4956493;28;45961;-78
2023/06/13 05:11:10;;;;;;;;;30.25;26.75;;;;;21.93;61.66;100316.59;4974038;28;45728;-77
2023/06/13 05:13:35;;;;;;;;;28.50;27.75;;;;;21.91;60.94;100307.97;4973943;28;45692;-76
2023/06/13 05:19:23;;;;;;;;;26.00;22.00;;;;;21.97;61.26;100317.09;4973991;28;45716;-76
2023/06/13 05:21:49;;;;;;;;;32.75;30.75;;;;;21.98;61.09;100319.56;4973903;28;46559;-77
2023/06/13 05:24:15;;;;;;;;;31.75;30.00;;;;;21.89;61.11;100304.66;4974081;28;46012;-77
2023/06/13 05:26:40;;;;;;;;;34.25;31.00;;;;;22.02;61.48;100322.69;4974092;28;45572;-77
2023/06/13 05:29:05;;;;;;;;;32.50;30.75;;;;;22.02;60.78;100318.19;4974167;28;45527;-76
2023/06/13 05:34:52;;;;;;;;;35.75;30.00;;;;;22.00;61.05;100308.72;4973404;28;46136;-75
2023/06/13 05:37:18;;;;;;;;;34.25;30.50;;;;;22.02;61.06;100309.34;4973688;28;45626;-77
2023/06/13 05:39:44;;;;;;;;;32.00;30.00;;;;;22.02;60.92;100309.34;4973676;28;45743;-77
2023/06/13 05:42:10;;;;;;;;;35.00;31.75;;;;;22.00;61.23;100314.88;4973349;28;46334;-76
2023/06/13 05:44:35;;;;;;;;;36.75;33.25;;;;;21.99;61.31;100312.38;4971756;28;47373;-76
2023/06/13 05:47:00;;;;;;;;;31.75;29.00;;;;;21.95;61.40;100308.44;4973266;28;45832;-78
2023/06/13 05:49:26;;;;;;;;;33.75;30.25;;;;;21.96;61.38;100310.94;4972942;28;45703;-76
2023/06/13 05:51:53;;;;;;;;;33.75;32.00;;;;;21.99;61.28;100323.06;4973065;28;46500;-76
2023/06/13 05:54:18;;;;;;;;;28.50;26.50;;;;;22.03;60.74;100319.81;4973113;28;45636;-76
2023/06/13 05:56:44;;;;;;;;;31.50;29.50;;;;;22.07;60.91;100330.97;4972813;28;45532;-75
2023/06/13 05:59:09;;;;;;;;;34.50;30.75;;;;;22.08;60.76;100321.91;4973334;28;45537;-75
2023/06/13 06:05:00;;;;;;;;;35.25;31.75;;;;;22.13;61.04;100324.88;4962491;28;45774;-81
2023/06/13 06:07:26;;;;;;;;;31.00;28.00;;;;;22.15;61.07;100325.47;4973288;28;45483;-76
2023/06/13 06:09:51;;;;;;;;;30.00;27.75;;;;;22.17;60.84;100326.94;4973381;28;45623;-80
2023/06/13 06:12:16;;;;;;;;;32.50;32.25;;;;;22.21;60.49;100319.38;4973170;28;46318;-75
2023/06/13 06:14:42;;;;;;;;;32.00;30.50;;;;;22.25;60.09;100311.81;4972685;28;46153;-80
2023/06/13 06:17:07;;;;;;;;;31.00;29.75;;;;;22.28;60.01;100306.09;4968579;28;45720;-76
2023/06/13 06:19:32;;;;;;;;;36.50;33.75;;;;;22.30;60.01;100312.88;4972143;28;45613;-77
2023/06/13 06:21:58;;;;;;;;;33.75;30.00;;;;;22.32;60.07;100307.34;4971928;28;46267;-79
2023/06/13 06:24:23;;;;;;;;;29.50;28.00;;;;;22.35;60.26;100299.78;4970892;28;46283;-78
2023/06/13 06:26:50;;;;;;;;;29.00;28.00;;;;;22.38;59.50;100306.59;4971614;28;45643;-77
2023/06/13 06:29:15;;;;;;;;;32.50;29.75;;;;;22.35;59.60;100293.66;4975182;28;45647;-76
2023/06/13 06:35:05;;;;;;;;;26.75;26.00;;;;;22.38;59.92;100291.41;4975861;28;45866;-75
2023/06/13 06:37:31;;;;;;;;;30.75;27.50;;;;;22.48;59.11;100305.25;4959315;28;45817;-75
2023/06/13 06:39:56;;;;;;;;;30.00;26.75;;;;;22.49;58.81;100301.56;4976320;28;45945;-76
2023/06/13 06:42:22;;;;;;;;;26.75;24.75;;;;;22.50;58.94;100300.53;4976247;28;46190;-78
2023/06/13 06:44:48;;;;;;;;;30.00;25.75;;;;;22.56;58.58;100299.75;4975852;28;46294;-78
2023/06/13 06:50:35;;;;;;;;;24.75;23.00;;;;;22.54;57.27;100279.59;4976098;28;45537;-79
2023/06/13 06:53:00;;;;;;;;;20.25;19.25;;;;;22.64;55.78;100290.78;4975838;28;46315;-76
2023/06/13 06:55:26;;;;;;;;;25.25;23.25;;;;;22.68;55.17;100291.19;4976124;28;45738;-77
2023/06/13 06:57:53;;;;;;;;;23.25;21.50;;;;;22.62;54.65;100275.97;4975671;28;45640;-77
2023/06/13 07:00:19;;;;;;;;;24.75;20.00;;;;;22.70;54.72;100284.66;4976185;28;45554;-76
2023/06/13 07:06:06;;;;;;;;;20.25;20.00;;;;;22.76;54.45;100277.72;4964792;28;45927;-77
2023/06/13 07:08:32;;;;;;;;;24.50;20.00;;;;;22.86;54.42;100286.22;4975505;28;45849;-79
2023/06/13 07:10:57;;;;;;;;;26.75;24.75;;;;;22.90;53.44;100292.81;4975835;28;45850;-77
2023/06/13 07:13:23;;;;;;;;;21.75;21.00;;;;;22.93;52.88;100297.78;4975199;28;46662;-76
2023/06/13 07:15:49;;;;;;;;;20.50;20.00;;;;;22.97;53.46;100293.69;4975968;28;45582;-75
2023/06/13 07:18:14;;;;;;;;;23.00;20.50;;;;;22.81;53.25;100268.09;4957865;28;45543;-75
2023/06/13 07:20:40;;;;;;;;;20.00;19.25;;;;;23.04;52.67;100293.72;4975524;28;45522;-76
2023/06/13 07:23:06;;;;;;;;;21.00;19.00;;;;;22.94;52.18;100270.03;4975512;28;45812;-75
2023/06/13 07:25:32;;;;;;;;;17.50;16.75;;;;;23.13;52.13;100300.56;4973856;28;47241;-76
2023/06/13 07:27:58;;;;;;;;;19.50;18.25;;;;;22.80;51.88;100242.41;4975442;28;45823;-81
2023/06/13 07:30:24;;;;;;;;;18.00;17.25;;;;;23.12;51.56;100289.03;4975360;28;45736;-79
2023/06/13 07:36:10;;;;;;;;;22.00;21.25;;;;;23.27;51.90;100305.75;4977273;28;45569;-77
2023/06/13 07:38:35;;;;;;;;;23.00;18.75;;;;;23.30;51.19;100299.19;4976274;28;45740;-77
2023/06/13 07:41:01;;;;;;;;;19.75;17.00;;;;;23.31;51.63;100293.66;4958436;28;45617;-76
2023/06/13 07:43:26;;;;;;;;;21.75;20.00;;;;;23.34;50.87;100297.78;4975028;28;45797;-76
2023/06/13 07:45:51;;;;;;;;;19.50;18.50;;;;;23.34;50.18;100297.78;4975102;28;46696;-77
2023/06/13 07:51:39;;;;;;;;;19.25;18.75;;;;;23.51;50.46;100303.63;4975003;28;45481;-77
2023/06/13 07:54:04;;;;;;;;;23.50;21.50;;;;;23.51;50.61;100298.28;4975290;28;45517;-76
2023/06/13 07:56:30;;;;;;;;;22.25;20.00;;;;;23.58;50.21;100296.47;4975190;28;45615;-76
2023/06/13 07:58:55;;;;;;;;;19.00;16.75;;;;;23.62;50.72;100287.84;4975307;28;45613;-77
2023/06/13 08:01:22;;;;;;;;;18.75;18.50;;;;;23.66;50.35;100294.41;4975381;28;45841;-79
2023/06/13 08:03:47;;;;;;;;;21.50;19.50;;;;;23.70;50.71;100301.00;4975216;28;45726;-76
2023/06/13 08:06:13;;;;;;;;;20.75;19.25;;;;;23.68;49.81;100286.19;4974602;28;45726;-79
2023/06/13 08:08:38;;;;;;;;;18.75;17.75;;;;;23.78;50.00;100298.16;4975321;28;45429;-76
2023/06/13 08:11:03;;;;;;;;;19.50;16.75;;;;;23.78;49.97;100290.13;4975427;28;45823;-75
2023/06/13 08:13:29;;;;;;;;;19.00;17.50;;;;;23.83;50.09;100297.56;4956984;28;45585;-79
2023/06/13 08:15:54;;;;;;;;;21.50;19.75;;;;;23.89;49.78;100304.78;4974637;28;45674;-76
2023/06/13 08:21:42;;;;;;;;;18.50;17.25;;;;;23.99;49.68;100293.66;4974677;28;45559;-75
2023/06/13 08:24:07;;;;;;;;;21.50;19.25;;;;;24.03;49.43;100298.41;4974431;28;46345;-76
2023/06/13 08:26:33;;;;;;;;;14.25;14.00;;;;;23.99;49.46;100272.25;4974644;28;46300;-79
2023/06/13 08:29:02;;;;;;;;;18.75;16.75;;;;;24.05;48.21;100282.97;4973448;28;46008;-77
2023/06/13 08:31:29;;;;;;;;;20.00;17.75;;;;;24.14;48.09;100287.09;4957350;28;45823;-76
2023/06/13 08:37:16;;;;;;;;;16.00;15.00;;;;;24.24;48.20;100284.03;4974281;28;46084;-75
2023/06/13 08:39:41;;;;;;;;;20.75;18.25;;;;;24.26;47.55;100273.94;4974728;28;45686;-76
2023/06/13 08:42:07;;;;;;;;;16.00;14.50;;;;;24.33;47.71;100282.81;4974798;28;45576;-76
2023/06/13 08:44:33;;;;;;;;;15.75;14.50;;;;;24.29;46.96;100260.16;4973727;28;46314;-78
2023/06/13 08:46:59;;;;;;;;;19.00;16.00;;;;;24.31;46.52;100257.25;4974152;28;46777;-76
2023/06/13 08:49:25;;;;;;;;;19.25;18.50;;;;;24.46;46.36;100277.44;4973714;28;45545;-77
2023/06/13 08:51:54;;;;;;;;;18.25;17.75;;;;;24.47;45.49;100270.22;4973828;28;45717;-76
2023/06/13 08:54:20;;;;;;;;;16.25;14.00;;;;;24.49;46.17;100270.84;4974142;28;46412;-79
2023/06/13 08:56:48;;;;;;;;;18.25;16.25;;;;;24.51;45.44;100255.38;4973958;28;46361;-82
2023/06/13 08:59:26;;;;;;;;;15.25;15.00;;;;;24.65;44.58;100273.94;4974515;28;45513;-77
2023/06/13 09:01:52;;;;;;;;;20.00;16.50;;;;;24.61;44.48;100259.31;4974567;28;45486;-80
2023/06/13 09:07:40;;;;;;;;;16.50;15.00;;;;;24.74;44.14;100261.13;4962809;28;45986;-79
2023/06/13 09:10:07;;;;;;;;;17.75;16.00;;;;;24.87;43.15;100284.41;4956186;28;45819;-83
2023/06/13 09:12:33;;;;;;;;;16.25;16.00;;;;;24.92;43.82;100279.25;4974861;28;45669;-86
2023/06/13 09:14:59;;;;;;;;;17.25;15.00;;;;;24.97;42.50;100291.00;4974435;28;45746;-83
2023/06/13 09:17:25;;;;;;;;;18.25;16.50;;;;;25.01;43.20;100283.34;4974727;28;45783;-80
2023/06/13 09:19:51;;;;;;;;;16.00;14.25;;;;;25.07;42.92;100291.38;4973856;28;45684;-75
2023/06/13 09:22:17;;;;;;;;;17.50;17.00;;;;;25.14;42.64;100285.19;4974121;28;45533;-82
2023/06/13 09:24:45;;;;;;;;;17.75;16.75;;;;;25.09;41.38;100272.41;4973951;28;45555;-85
2023/06/13 09:27:11;;;;;;;;;14.25;13.25;;;;;25.21;42.08;100281.41;4956481;28;47118;-83
2023/06/13 09:29:37;;;;;;;;;15.25;14.50;;;;;25.28;42.03;100281.41;4974614;28;45612;-84
2023/06/13 09:32:03;;;;;;;;;17.75;15.50;;;;;25.36;41.94;100279.31;4974348;28;45795;-77
2023/06/13 09:37:50;;;;;;;;;16.75;15.50;;;;;25.49;41.11;100275.72;4973221;28;45856;-78
2023/06/13 09:40:16;;;;;;;;;17.25;16.00;;;;;25.53;40.49;100276.97;4973692;28;45601;-79
2023/06/13 09:42:43;;;;;;;;;19.50;17.75;;;;;25.46;40.95;100260.06;4973939;28;45968;-77
2023/06/13 09:45:10;;;;;;;;;19.00;16.75;;;;;25.58;41.18;100263.75;4956249;28;47463;-78
2023/06/13 09:47:35;;;;;;;;;15.00;15.00;;;;;25.62;39.69;100278.38;4973854;28;45960;-78
2023/06/13 09:53:23;;;;;;;;;16.50;14.25;;;;;25.77;40.05;100265.50;4973858;28;45542;-80
2023/06/13 09:55:49;;;;;;;;;15.50;14.75;;;;;25.82;38.71;100268.34;4974737;28;45556;-78
2023/06/13 09:58:15;;;;;;;;;16.00;15.75;;;;;25.84;37.41;100268.13;4973445;28;45978;-77
2023/06/13 10:00:41;;;;;;;;;15.00;13.50;;;;;25.90;37.53;100278.03;4974423;28;45592;-76
2023/06/13 10:03:07;;;;;;;;;16.50;15.00;;;;;25.96;38.60;100279.00;4974669;28;45616;-75
2023/06/13 10:05:32;;;;;;;;;14.25;14.00;;;;;26.04;37.82;100278.75;4973630;28;45915;-75
2023/06/13 10:07:58;;;;;;;;;13.00;13.00;;;;;26.10;38.12;100285.94;4972923;28;46120;-75
2023/06/13 10:10:23;;;;;;;;;15.25;14.75;;;;;26.15;38.02;100276.16;4976725;28;45744;-76
2023/06/13 10:12:53;;;;;;;;;14.00;14.00;;;;;26.22;38.00;100279.66;4973384;28;45793;-77
2023/06/13 10:15:26;;;;;;;;;15.75;15.50;;;;;26.25;37.90;100279.22;4973152;28;45568;-77
2023/06/13 10:17:57;;;;;;;;;15.50;15.50;;;;;26.16;38.41;100256.34;4972566;28;46226;-75
2023/06/13 10:23:49;;;;;;;;;16.75;14.75;;;;;26.45;38.58;100279.03;4972886;28;45635;-75
2023/06/13 10:26:38;;;;;;;;;14.00;14.00;;;;;26.50;37.49;100289.97;4972609;28;46408;-77
2023/06/13 10:29:28;;;;;;;;;17.00;15.00;;;;;26.54;37.67;100287.66;4972891;28;46547;-77
2023/06/13 10:32:09;;;;;;;;;17.00;15.75;;;;;26.57;37.46;100284.53;4973019;28;45528;-76
2023/06/13 10:35:09;;;;;;;;;15.00;14.00;;;;;26.55;37.59;100274.00;4973130;28;45615;-74
2023/06/13 10:38:02;;;;;;;;;17.25;16.75;;;;;26.65;37.85;100282.38;4973347;28;46495;-76
2023/06/13 10:40:36;;;;;;;;;21.75;17.00;;;;;26.65;36.52;100279.69;4973526;28;46092;-78
2023/06/13 10:43:12;;;;;;;;;18.25;14.00;;;;;26.68;36.98;100284.63;4972638;28;45693;-77
2023/06/13 10:45:42;;;;;;;;;16.75;16.50;;;;;26.70;37.23;100279.03;4973193;28;45722;-75
2023/06/13 10:48:07;;;;;;;;;16.50;16.00;;;;;26.72;37.07;100268.88;4973848;28;45679;-79
2023/06/13 10:50:40;;;;;;;;;17.75;16.00;;;;;26.83;36.38;100284.25;4974186;28;45858;-75
2023/06/13 10:53:09;;;;;;;;;19.00;18.25;;;;;26.77;37.20;100260.97;4974405;28;45759;-82
2023/06/13 10:55:38;;;;;;;;;18.25;17.25;;;;;26.89;36.60;100285.25;4973056;28;45616;-79
2023/06/13 10:58:12;;;;;;;;;16.00;16.00;;;;;26.91;35.91;100283.19;4973019;28;47520;-77
2023/06/13 11:00:39;;;;;;;;;14.00;13.25;;;;;26.89;36.27;100269.13;4972246;28;46331;-84
2023/06/13 11:03:10;;;;;;;;;17.25;17.00;;;;;26.96;36.70;100280.66;4972293;28;45525;-77
2023/06/13 11:05:44;;;;;;;;;17.50;16.00;;;;;26.99;36.69;100269.47;4972057;28;45647;-77
2023/06/13 11:08:14;;;;;;;;;17.00;15.25;;;;;27.05;36.93;100265.84;4971685;28;46409;-77
2023/06/13 11:10:42;;;;;;;;;14.50;13.50;;;;;27.09;35.95;100269.75;4972173;28;46367;-77
2023/06/13 11:13:31;;;;;;;;;16.00;14.50;;;;;27.12;35.70;100258.53;4972469;28;45506;-78
2023/06/13 11:16:16;;;;;;;;;13.50;13.50;;;;;27.18;34.33;100272.94;4975262;28;45612;-75
2023/06/13 11:22:03;;;;;;;;;17.00;14.25;;;;;27.23;35.78;100255.06;4976015;28;45937;-76
2023/06/13 11:24:30;;;;;;;;;15.00;14.25;;;;;27.27;34.65;100260.81;4975701;28;45667;-76
2023/06/13 11:26:57;;;;;;;;;15.75;14.25;;;;;27.29;35.19;100254.19;4975563;28;45589;-76
2023/06/13 11:29:23;;;;;;;;;15.25;14.25;;;;;27.27;35.64;100256.25;4975150;28;45669;-78
2023/06/13 11:31:53;;;;;;;;;12.75;12.75;;;;;27.31;34.29;100253.97;4974725;28;45736;-77
2023/06/13 11:37:46;;;;;;;;;14.00;13.00;;;;;27.43;34.00;100261.00;4974985;28;45685;-76
2023/06/13 11:40:30;;;;;;;;;14.00;14.00;;;;;27.47;33.74;100262.22;4974884;28;47546;-78
2023/06/13 11:42:56;;;;;;;;;16.25;15.25;;;;;27.44;33.69;100251.91;4975155;28;46102;-77
2023/06/13 11:45:22;;;;;;;;;13.00;11.00;;;;;27.39;33.93;100227.53;4975194;28;45609;-79
2023/06/13 11:47:58;;;;;;;;;12.50;11.50;;;;;27.60;33.74;100257.72;4975344;28;45677;-82
2023/06/13 11:53:59;;;;;;;;;14.50;13.50;;;;;27.62;32.82;100248.38;4974671;28;46095;-80
2023/06/13 11:56:26;;;;;;;;;13.25;12.75;;;;;27.67;32.93;100253.06;4975516;28;45824;-78
2023/06/13 11:58:53;;;;;;;;;12.50;11.50;;;;;27.69;33.48;100245.59;4975128;28;45704;-78
2023/06/13 12:01:21;;;;;;;;;14.00;14.00;;;;;27.78;32.41;100253.13;4975320;28;46287;-81
2023/06/13 12:03:47;;;;;;;;;13.50;13.50;;;;;27.82;32.50;100254.28;4974991;28;46085;-77
2023/06/13 12:09:48;;;;;;;;;13.75;12.50;;;;;27.90;32.12;100253.16;4966362;28;45742;-76
2023/06/13 12:12:14;;;;;;;;;14.25;13.00;;;;;27.96;31.84;100250.31;4957208;28;46511;-78
2023/06/13 12:14:39;;;;;;;;;14.75;13.75;;;;;27.99;31.19;100246.38;4974668;28;45910;-78
2023/06/13 12:17:05;;;;;;;;;11.25;11.00;;;;;27.99;31.88;100251.75;4974648;28;45715;-76
2023/06/13 12:19:30;;;;;;;;;13.00;12.25;;;;;28.02;31.85;100234.31;4974600;28;45549;-77
2023/06/13 12:25:18;;;;;;;;;15.00;14.00;;;;;27.91;31.94;100234.03;4973751;28;45868;-80
2023/06/13 12:27:43;;;;;;;;;12.25;12.00;;;;;27.91;31.02;100244.81;4973760;28;45667;-77
2023/06/13 12:30:13;;;;;;;;;14.25;13.25;;;;;28.05;31.49;100252.69;4974699;28;45697;-77
2023/06/13 12:32:43;;;;;;;;;13.00;12.75;;;;;28.05;31.32;100247.31;4974239;28;46067;-76
2023/06/13 12:35:09;;;;;;;;;12.50;11.75;;;;;28.11;31.16;100238.31;4974057;28;46224;-79
2023/06/13 12:37:37;;;;;;;;;12.00;11.75;;;;;28.14;30.79;100246.75;4974242;28;45625;-77
2023/06/13 12:40:11;;;;;;;;;12.00;12.00;;;;;28.18;31.63;100244.44;4975290;28;45660;-83
2023/06/13 12:42:38;;;;;;;;;15.00;14.00;;;;;28.21;31.76;100247.47;4975147;28;46383;-79
2023/06/13 12:45:04;;;;;;;;;14.75;13.75;;;;;28.24;31.78;100252.41;4974028;28;45509;-78